Terminal Aerodrome Forecast
Issued by NWS

Current Version | Previous Version | Text Only | Print | Product List | Glossary On
Versions: 1 2 3 4 5 6 7 8 9 10 11 12 13 14 15 16 17 18 19 20 21 22 23 24 25 26 27
232
FTUS41 KCAR 091640 AAE
TAFPQI
TAF AMD
KPQI 091640Z 0917/1012 28009KT P6SM VCSH BKN025
     FM091730 30012G22KT P6SM VCSH BKN035
     FM092200 31011G24KT P6SM BKN030=

USA.gov is the U.S. government's official web portal to all federal, state and local government web resources and services.